PWSweather.com
Personal Weather Stations
Station Observations
IBUENOSA85
Villa Ballester, Villa BallesterAR 1653

Villa BallesterVilla BallesterAR 1653

Lat: -34.5356775, Lon: -58.5493898

Elevation: 120

Station Type: WH1081

Latest ConditionsUpdated 4:45:01 AM GMT-03:57 Monday, Dec 10, 2018
Currently Today's Max Today's Min Today's Average
Temperature 62.8°F17.1°C 67.3°F19.6°C 62.8°F17.1°C 64.6°F18.1°C
Dew Point 62.5°F16.9°C 67.0°F19.4°C 62.5°F16.9°C 64.3°F17.9°C
Winds Calm Calm 3.1 mph -5.0 kmh - - 0.5 mph 0.8 kmh
Wind Gusts 2.2 mph3.5 kmh 5.4 mph8.7 kmh - -
Humidity 99% 99% 99% 99%
Pressure 29.92 in1013.2 mb 29.94 in1013.9 mb 29.91 in1012.9 mb -
Hour Temp Dew Point Humidity Winds Wind Gusts Pressure Precip Precip Rate Daily Precip Total
04:45 AM 62.8°F17.1°C 62.5°F16.9°C 99% Calm Calm 2.2 mph3.5 kmh 29.92 in1013.2 mb 0.00 in0.0 mm 0.00 in0.0 mm 0.00 in0.0 mm
04:40 AM 62.8°F17.1°C 62.5°F16.9°C 99% Calm Calm 1.6 mph2.6 kmh 29.92 in1013.2 mb 0.00 in0.0 mm 0.00 in0.0 mm 0.00 in0.0 mm
04:35 AM 62.8°F17.1°C 62.5°F16.9°C 99% Calm Calm 1.6 mph2.6 kmh 29.92 in1013.2 mb 0.00 in0.0 mm 0.00 in0.0 mm 0.00 in0.0 mm
04:30 AM 63.0°F17.2°C 62.7°F17.1°C 99% Calm Calm 2.2 mph3.5 kmh 29.92 in1013.2 mb 0.00 in0.0 mm 0.00 in0.0 mm 0.00 in0.0 mm
04:25 AM 63.1°F17.3°C 62.9°F17.2°C 99% Calm Calm 2.2 mph3.5 kmh 29.92 in1013.2 mb 0.00 in0.0 mm 0.00 in0.0 mm 0.00 in0.0 mm
04:20 AM 63.3°F17.4°C 63.1°F17.3°C 99% Calm Calm 3.8 mph6.1 kmh 29.92 in1013.2 mb 0.00 in0.0 mm 0.00 in0.0 mm 0.00 in0.0 mm
04:15 AM 63.3°F17.4°C 63.1°F17.3°C 99% 1.6 mph NW2.6 kmh NW 3.8 mph6.1 kmh 29.92 in1013.2 mb 0.00 in0.0 mm 0.00 in0.0 mm 0.00 in0.0 mm
04:10 AM 63.5°F17.5°C 63.2°F17.3°C 99% 0.7 mph NW1.1 kmh NW 3.8 mph6.1 kmh 29.92 in1013.2 mb 0.00 in0.0 mm 0.00 in0.0 mm 0.00 in0.0 mm
04:05 AM 63.5°F17.5°C 63.2°F17.3°C 99% 0.7 mph NW1.1 kmh NW 3.1 mph5.0 kmh 29.92 in1013.2 mb 0.00 in0.0 mm 0.00 in0.0 mm 0.00 in0.0 mm
04:00 AM 63.3°F17.4°C 63.1°F17.3°C 99% 0.7 mph NW1.1 kmh NW 1.6 mph2.6 kmh 29.91 in1012.9 mb 0.00 in0.0 mm 0.00 in0.0 mm 0.00 in0.0 mm
03:55 AM 63.3°F17.4°C 63.1°F17.3°C 99% Calm Calm 1.6 mph2.6 kmh 29.91 in1012.9 mb 0.00 in0.0 mm 0.00 in0.0 mm 0.00 in0.0 mm
03:50 AM 63.3°F17.4°C 63.1°F17.3°C 99% Calm Calm 1.6 mph2.6 kmh 29.91 in1012.9 mb 0.00 in0.0 mm 0.00 in0.0 mm 0.00 in0.0 mm
03:45 AM 63.3°F17.4°C 63.1°F17.3°C 99% Calm Calm 2.2 mph3.5 kmh 29.91 in1012.9 mb 0.00 in0.0 mm 0.00 in0.0 mm 0.00 in0.0 mm
03:40 AM 63.5°F17.5°C 63.2°F17.3°C 99% Calm Calm 2.2 mph3.5 kmh 29.91 in1012.9 mb 0.00 in0.0 mm 0.00 in0.0 mm 0.00 in0.0 mm
03:35 AM 63.5°F17.5°C 63.2°F17.3°C 99% 0.7 mph WSW1.1 kmh WSW 2.2 mph3.5 kmh 29.91 in1012.9 mb 0.00 in0.0 mm 0.00 in0.0 mm 0.00 in0.0 mm
03:30 AM 63.5°F17.5°C 63.2°F17.3°C 99% 0.7 mph W1.1 kmh W 1.6 mph2.6 kmh 29.91 in1012.9 mb 0.00 in0.0 mm 0.00 in0.0 mm 0.00 in0.0 mm
03:25 AM 63.5°F17.5°C 63.2°F17.3°C 99% Calm Calm 1.6 mph2.6 kmh 29.91 in1012.9 mb 0.00 in0.0 mm 0.00 in0.0 mm 0.00 in0.0 mm
03:20 AM 63.5°F17.5°C 63.2°F17.3°C 99% Calm Calm 1.6 mph2.6 kmh 29.91 in1012.9 mb 0.00 in0.0 mm 0.00 in0.0 mm 0.00 in0.0 mm
03:15 AM 63.5°F17.5°C 63.2°F17.3°C 99% Calm Calm 1.6 mph2.6 kmh 29.92 in1013.2 mb 0.00 in0.0 mm 0.00 in0.0 mm 0.00 in0.0 mm
03:10 AM 63.7°F17.6°C 63.4°F17.4°C 99% Calm Calm 1.6 mph2.6 kmh 29.91 in1012.9 mb 0.00 in0.0 mm 0.00 in0.0 mm 0.00 in0.0 mm
03:05 AM 63.9°F17.7°C 63.6°F17.6°C 99% Calm Calm 1.6 mph2.6 kmh 29.91 in1012.9 mb 0.00 in0.0 mm 0.00 in0.0 mm 0.00 in0.0 mm
03:00 AM 63.9°F17.7°C 63.6°F17.6°C 99% Calm Calm 1.6 mph2.6 kmh 29.91 in1012.9 mb 0.00 in0.0 mm 0.00 in0.0 mm 0.00 in0.0 mm
02:55 AM 63.9°F17.7°C 63.6°F17.6°C 99% Calm Calm 1.6 mph2.6 kmh 29.91 in1012.9 mb 0.00 in0.0 mm 0.00 in0.0 mm 0.00 in0.0 mm
02:50 AM 64.0°F17.8°C 63.8°F17.7°C 99% Calm Calm 2.2 mph3.5 kmh 29.91 in1012.9 mb 0.00 in0.0 mm 0.00 in0.0 mm 0.00 in0.0 mm
02:45 AM 64.0°F17.8°C 63.8°F17.7°C 99% Calm Calm 2.2 mph3.5 kmh 29.91 in1012.9 mb 0.00 in0.0 mm 0.00 in0.0 mm 0.00 in0.0 mm
02:40 AM 64.0°F17.8°C 63.8°F17.7°C 99% Calm Calm 2.2 mph3.5 kmh 29.92 in1013.2 mb 0.00 in0.0 mm 0.00 in0.0 mm 0.00 in0.0 mm
02:35 AM 64.2°F17.9°C 64.0°F17.8°C 99% Calm Calm 0.7 mph1.1 kmh 29.91 in1012.9 mb 0.00 in0.0 mm 0.00 in0.0 mm 0.00 in0.0 mm
02:30 AM 64.4°F18.0°C 64.1°F17.8°C 99% Calm Calm 0.7 mph1.1 kmh 29.91 in1012.9 mb 0.00 in0.0 mm 0.00 in0.0 mm 0.00 in0.0 mm
02:25 AM 64.4°F18.0°C 64.1°F17.8°C 99% Calm Calm 1.6 mph2.6 kmh 29.91 in1012.9 mb 0.00 in0.0 mm 0.00 in0.0 mm 0.00 in0.0 mm
02:20 AM 64.4°F18.0°C 64.1°F17.8°C 99% Calm Calm 1.6 mph2.6 kmh 29.91 in1012.9 mb 0.00 in0.0 mm 0.00 in0.0 mm 0.00 in0.0 mm
02:15 AM 64.4°F18.0°C 64.1°F17.8°C 99% Calm Calm 2.2 mph3.5 kmh 29.91 in1012.9 mb 0.00 in0.0 mm 0.00 in0.0 mm 0.00 in0.0 mm
02:10 AM 64.6°F18.1°C 64.3°F17.9°C 99% Calm Calm 3.1 mph5.0 kmh 29.91 in1012.9 mb 0.00 in0.0 mm 0.00 in0.0 mm 0.00 in0.0 mm
02:05 AM 64.6°F18.1°C 64.3°F17.9°C 99% 0.7 mph S1.1 kmh S 3.1 mph5.0 kmh 29.91 in1012.9 mb 0.00 in0.0 mm 0.00 in0.0 mm 0.00 in0.0 mm
02:00 AM 64.8°F18.2°C 64.5°F18.1°C 99% 0.7 mph S1.1 kmh S 3.1 mph5.0 kmh 29.91 in1012.9 mb 0.00 in0.0 mm 0.00 in0.0 mm 0.00 in0.0 mm
01:55 AM 64.8°F18.2°C 64.5°F18.1°C 99% Calm Calm 3.1 mph5.0 kmh 29.91 in1012.9 mb 0.00 in0.0 mm 0.00 in0.0 mm 0.00 in0.0 mm
01:50 AM 64.9°F18.3°C 64.7°F18.2°C 99% 0.7 mph SW1.1 kmh SW 3.1 mph5.0 kmh 29.92 in1013.2 mb 0.00 in0.0 mm 0.00 in0.0 mm 0.00 in0.0 mm
01:45 AM 64.9°F18.3°C 64.7°F18.2°C 99% 1.6 mph WSW2.6 kmh WSW 3.8 mph6.1 kmh 29.92 in1013.2 mb 0.00 in0.0 mm 0.00 in0.0 mm 0.00 in0.0 mm
01:40 AM 65.1°F18.4°C 64.9°F18.3°C 99% 0.7 mph WSW1.1 kmh WSW 3.8 mph6.1 kmh 29.92 in1013.2 mb 0.00 in0.0 mm 0.00 in0.0 mm 0.00 in0.0 mm
01:35 AM 65.1°F18.4°C 64.9°F18.3°C 99% 0.7 mph WSW1.1 kmh WSW 3.8 mph6.1 kmh 29.92 in1013.2 mb 0.00 in0.0 mm 0.00 in0.0 mm 0.00 in0.0 mm
01:30 AM 65.1°F18.4°C 64.9°F18.3°C 99% 0.7 mph SW1.1 kmh SW 3.8 mph6.1 kmh 29.92 in1013.2 mb 0.00 in0.0 mm 0.00 in0.0 mm 0.00 in0.0 mm
01:25 AM 65.5°F18.6°C 65.2°F18.4°C 99% Calm Calm 3.8 mph6.1 kmh 29.92 in1013.2 mb 0.00 in0.0 mm 0.00 in0.0 mm 0.00 in0.0 mm
01:20 AM 65.7°F18.7°C 65.4°F18.6°C 99% Calm Calm 3.8 mph6.1 kmh 29.92 in1013.2 mb 0.00 in0.0 mm 0.00 in0.0 mm 0.00 in0.0 mm
01:15 AM 65.7°F18.7°C 65.4°F18.6°C 99% Calm Calm 3.1 mph5.0 kmh 29.93 in1013.5 mb 0.00 in0.0 mm 0.00 in0.0 mm 0.00 in0.0 mm
01:10 AM 65.7°F18.7°C 65.4°F18.6°C 99% Calm Calm 3.8 mph6.1 kmh 29.93 in1013.5 mb 0.00 in0.0 mm 0.00 in0.0 mm 0.00 in0.0 mm
01:05 AM 65.8°F18.8°C 65.6°F18.7°C 99% 1.6 mph SW2.6 kmh SW 3.8 mph6.1 kmh 29.93 in1013.5 mb 0.00 in0.0 mm 0.00 in0.0 mm 0.00 in0.0 mm
01:00 AM 65.8°F18.8°C 65.6°F18.7°C 99% 0.7 mph SW1.1 kmh SW 3.8 mph6.1 kmh 29.93 in1013.5 mb 0.00 in0.0 mm 0.00 in0.0 mm 0.00 in0.0 mm
12:55 AM 66.0°F18.9°C 65.8°F18.8°C 99% 1.6 mph SW2.6 kmh SW 3.8 mph6.1 kmh 29.93 in1013.5 mb 0.00 in0.0 mm 0.00 in0.0 mm 0.00 in0.0 mm
12:50 AM 66.0°F18.9°C 65.8°F18.8°C 99% 1.6 mph SW2.6 kmh SW 3.8 mph6.1 kmh 29.93 in1013.5 mb 0.00 in0.0 mm 0.00 in0.0 mm 0.00 in0.0 mm
12:45 AM 66.0°F18.9°C 65.8°F18.8°C 99% 0.7 mph SW1.1 kmh SW 4.5 mph7.2 kmh 29.93 in1013.5 mb 0.00 in0.0 mm 0.00 in0.0 mm 0.00 in0.0 mm
12:40 AM 66.0°F18.9°C 65.8°F18.8°C 99% 1.6 mph SW2.6 kmh SW 4.5 mph7.2 kmh 29.93 in1013.5 mb 0.00 in0.0 mm 0.00 in0.0 mm 0.00 in0.0 mm
12:35 AM 66.2°F19.0°C 65.9°F18.8°C 99% 1.6 mph SW2.6 kmh SW 4.5 mph7.2 kmh 29.93 in1013.5 mb 0.00 in0.0 mm 0.00 in0.0 mm 0.00 in0.0 mm
12:30 AM 66.4°F19.1°C 66.1°F18.9°C 99% 0.7 mph SW1.1 kmh SW 4.5 mph7.2 kmh 29.93 in1013.5 mb 0.00 in0.0 mm 0.00 in0.0 mm 0.00 in0.0 mm
12:25 AM 66.4°F19.1°C 66.1°F18.9°C 99% 3.1 mph SSW5.0 kmh SSW 4.5 mph7.2 kmh 29.93 in1013.5 mb 0.00 in0.0 mm 0.00 in0.0 mm 0.00 in0.0 mm
12:20 AM 66.6°F19.2°C 66.3°F19.1°C 99% 2.2 mph SSW3.5 kmh SSW 4.5 mph7.2 kmh 29.94 in1013.9 mb 0.00 in0.0 mm 0.00 in0.0 mm 0.00 in0.0 mm
12:15 AM 66.7°F19.3°C 66.5°F19.2°C 99% 2.2 mph SW3.5 kmh SW 5.4 mph8.7 kmh 29.94 in1013.9 mb 0.00 in0.0 mm 0.00 in0.0 mm 0.00 in0.0 mm
12:10 AM 66.9°F19.4°C 66.7°F19.3°C 99% Calm Calm 5.4 mph8.7 kmh 29.93 in1013.5 mb 0.00 in0.0 mm 0.00 in0.0 mm 0.00 in0.0 mm
12:05 AM 67.1°F19.5°C 66.8°F19.3°C 99% 1.6 mph SW2.6 kmh SW 4.5 mph7.2 kmh 29.93 in1013.5 mb 0.00 in0.0 mm 0.00 in0.0 mm 0.00 in0.0 mm
12:00 AM 67.3°F19.6°C 67.0°F19.4°C 99% 1.6 mph SW2.6 kmh SW 4.5 mph7.2 kmh 29.93 in1013.5 mb 0.00 in0.0 mm 0.00 in0.0 mm 0.00 in0.0 mm